createdAt,value
2023-08-14T00:02:03.843Z,99081.00
2023-08-14T00:04:50.523Z,99080.63
2023-08-14T00:07:36.978Z,99076.84
2023-08-14T00:10:23.335Z,99072.63
2023-08-14T00:13:09.845Z,99075.34
2023-08-14T00:15:56.480Z,99080.31
2023-08-14T00:18:43.233Z,99075.91
2023-08-14T00:21:29.822Z,99075.06
2023-08-14T00:24:16.616Z,99067.38
2023-08-14T00:27:03.101Z,99072.47
2023-08-14T00:29:49.567Z,99071.13
2023-08-14T00:32:36.333Z,99072.84
2023-08-14T00:35:22.965Z,99070.03
2023-08-14T00:38:10.248Z,99069.06
2023-08-14T00:40:57.074Z,99055.72
2023-08-14T00:43:43.495Z,99058.06
2023-08-14T00:46:31.723Z,99050.69
2023-08-14T00:49:18.355Z,99050.88
2023-08-14T00:52:05.189Z,99038.66
2023-08-14T00:54:51.511Z,99036.72
2023-08-14T00:57:39.201Z,99028.84
2023-08-14T01:00:29.150Z,99027.06
2023-08-14T01:03:16.617Z,99032.31
2023-08-14T01:06:05.039Z,99030.47
2023-08-14T01:08:52.108Z,99024.69
2023-08-14T01:12:08.901Z,99033.56
2023-08-14T01:15:07.912Z,99038.56
2023-08-14T01:17:58.968Z,99033.56
2023-08-14T01:21:12.383Z,99047.50
2023-08-14T01:24:30.152Z,99066.31
2023-08-14T01:27:17.320Z,99044.31
2023-08-14T01:30:03.740Z,99048.31
2023-08-14T01:32:51.284Z,99055.25
2023-08-14T01:35:47.074Z,99061.91
2023-08-14T01:38:39.368Z,99054.09
2023-08-14T01:41:47.265Z,99042.56
2023-08-14T01:44:35.465Z,99030.66
2023-08-14T01:47:24.803Z,99048.97
2023-08-14T01:50:14.341Z,99043.72
2023-08-14T01:53:01.345Z,99042.75
2023-08-14T01:55:47.715Z,99022.06
2023-08-14T01:58:36.029Z,99035.66
2023-08-14T02:01:22.968Z,99023.44
2023-08-14T02:04:10.180Z,99028.50
2023-08-14T02:06:56.878Z,99018.13
2023-08-14T02:09:43.231Z,98973.38
2023-08-14T02:12:31.911Z,98998.28
2023-08-14T02:15:18.606Z,99004.59
2023-08-14T02:18:05.226Z,98972.63
2023-08-14T02:20:53.844Z,98985.00
2023-08-14T02:23:40.358Z,98984.72
2023-08-14T02:26:26.975Z,98975.22
2023-08-14T02:29:13.620Z,98952.47
2023-08-14T02:32:00.110Z,98968.94
2023-08-14T02:34:51.836Z,98951.72
2023-08-14T02:37:38.598Z,98954.44
2023-08-14T02:40:25.060Z,98956.28
2023-08-14T02:43:11.661Z,98938.38
2023-08-14T02:45:59.366Z,98934.91
2023-08-14T02:48:49.224Z,98937.47
2023-08-14T02:51:35.609Z,98932.84
2023-08-14T02:54:22.434Z,98950.59
2023-08-14T02:57:09.120Z,98943.03
2023-08-14T02:59:55.896Z,98949.44
2023-08-14T03:02:42.513Z,98953.41
2023-08-14T03:05:29.091Z,98960.00
2023-08-14T03:08:15.682Z,98963.53
2023-08-14T03:16:35.160Z,98978.09
2023-08-14T03:19:25.515Z,98983.63
2023-08-14T03:22:12.513Z,98989.09
2023-08-14T03:24:59.296Z,98996.22
2023-08-14T03:27:45.532Z,98988.81
2023-08-14T03:30:31.939Z,98998.13
2023-08-14T03:33:18.340Z,98986.28
2023-08-14T03:36:07.628Z,98989.78
2023-08-14T03:38:55.134Z,98995.91
2023-08-14T03:41:42.536Z,98965.88
2023-08-14T03:44:29.203Z,98994.25
2023-08-14T03:47:16.019Z,98983.09
2023-08-14T03:50:02.328Z,99006.41
2023-08-14T03:52:49.420Z,99005.56
2023-08-14T03:55:37.021Z,99003.16
2023-08-14T03:58:23.458Z,99005.66
2023-08-14T04:01:09.714Z,98997.91
2023-08-14T04:03:56.087Z,98998.91
2023-08-14T04:06:43.909Z,98984.13
2023-08-14T04:09:30.779Z,98996.22
2023-08-14T04:12:17.283Z,99004.28
2023-08-14T04:15:18.073Z,98999.28
2023-08-14T04:18:04.690Z,99001.16
2023-08-14T04:20:51.405Z,99004.63
2023-08-14T04:23:37.963Z,98991.81
2023-08-14T04:26:24.916Z,99005.63
2023-08-14T04:29:12.317Z,99005.84
2023-08-14T04:31:59.195Z,98993.00
2023-08-14T04:34:45.902Z,99001.44
2023-08-14T04:37:32.456Z,98997.28
2023-08-14T04:40:19.152Z,98984.28
2023-08-14T04:43:06.082Z,98993.75
2023-08-14T04:45:52.536Z,99005.84
2023-08-14T04:48:39.481Z,99002.09
2023-08-14T04:51:26.911Z,98981.22
2023-08-14T04:54:13.308Z,98991.88
2023-08-14T04:56:59.980Z,98971.00
2023-08-14T04:59:46.882Z,98986.19
2023-08-14T05:02:33.231Z,98980.72
2023-08-14T05:05:21.101Z,98986.63
2023-08-14T05:08:07.795Z,98991.81
2023-08-14T05:10:55.550Z,98979.78
2023-08-14T05:13:45.471Z,98985.75
2023-08-14T05:16:32.691Z,98953.94
2023-08-14T05:19:19.656Z,98962.06
2023-08-14T05:22:06.476Z,98980.78
2023-08-14T05:24:52.976Z,98938.13
2023-08-14T05:27:40.007Z,98978.72
2023-08-14T05:30:26.510Z,98973.59
2023-08-14T05:33:14.076Z,98979.47
2023-08-14T05:36:03.338Z,98984.91
2023-08-14T05:38:50.740Z,98981.47
2023-08-14T05:41:37.428Z,98976.28
2023-08-14T05:44:24.332Z,98982.84
2023-08-14T05:47:11.002Z,98988.66
2023-08-14T05:49:57.627Z,98963.06
2023-08-14T05:52:44.307Z,98977.19
2023-08-14T05:55:42.672Z,98969.50
2023-08-14T05:58:29.333Z,98967.31
2023-08-14T06:01:15.932Z,98970.94
2023-08-14T06:04:03.844Z,98955.81
2023-08-14T06:06:50.621Z,98973.81
2023-08-14T06:09:37.044Z,98975.44
2023-08-14T06:12:23.598Z,98968.66
2023-08-14T06:15:10.299Z,98969.69
2023-08-14T06:17:56.742Z,98974.38
2023-08-14T06:20:43.341Z,98975.50
2023-08-14T06:23:29.726Z,98967.97
2023-08-14T06:26:16.158Z,98942.22
2023-08-14T06:29:02.784Z,98951.75
2023-08-14T06:31:49.381Z,98963.50
2023-08-14T06:34:36.530Z,98959.31
2023-08-14T06:37:23.205Z,98967.56
2023-08-14T06:40:10.290Z,98965.28
2023-08-14T06:42:56.878Z,98984.34
2023-08-14T06:45:43.406Z,98979.56
2023-08-14T06:48:31.410Z,98949.97
2023-08-14T06:51:19.786Z,98976.72
2023-08-14T06:54:06.918Z,98994.06
2023-08-14T06:56:54.744Z,98992.13
2023-08-14T06:59:41.253Z,98998.53
2023-08-14T07:02:27.614Z,98986.03
2023-08-14T07:05:14.323Z,99001.75
2023-08-14T07:08:01.193Z,98989.50
2023-08-14T07:10:47.957Z,98973.50
2023-08-14T07:13:34.705Z,98973.56
2023-08-14T07:16:22.056Z,98970.50
2023-08-14T07:19:08.543Z,98951.06
2023-08-14T07:21:54.935Z,98973.22
2023-08-14T07:24:41.269Z,98974.75
2023-08-14T07:27:27.796Z,98975.53
2023-08-14T07:30:15.362Z,98974.94
2023-08-14T07:33:02.346Z,98960.97
2023-08-14T07:35:48.852Z,98948.84
2023-08-14T07:38:36.320Z,98963.34
2023-08-14T07:41:22.667Z,98961.31
2023-08-14T07:44:09.045Z,98960.31
2023-08-14T07:46:55.333Z,98950.34
2023-08-14T07:49:41.644Z,98954.47
2023-08-14T07:52:28.861Z,98946.25
2023-08-14T07:55:15.517Z,98939.78
2023-08-14T07:58:01.831Z,98955.13
2023-08-14T08:00:48.203Z,98931.19
2023-08-14T08:03:34.411Z,98957.88
2023-08-14T08:06:20.691Z,98952.53
2023-08-14T08:09:10.736Z,98945.41
2023-08-14T08:11:57.970Z,98954.72
2023-08-14T08:14:44.407Z,98965.53
2023-08-14T08:17:31.090Z,98969.50
2023-08-14T08:20:18.154Z,98969.31
2023-08-14T08:23:05.267Z,98977.56
2023-08-14T08:25:51.691Z,98964.63
2023-08-14T08:28:38.109Z,98988.13
2023-08-14T08:31:25.153Z,98998.34
2023-08-14T08:34:11.500Z,99001.28
2023-08-14T08:36:58.149Z,98993.97
2023-08-14T08:39:44.482Z,98981.22
2023-08-14T08:42:31.323Z,98988.50
2023-08-14T08:45:18.426Z,98988.13
2023-08-14T08:48:07.758Z,98979.34
2023-08-14T08:50:54.877Z,98983.91
2023-08-14T08:53:41.914Z,98991.53
2023-08-14T08:56:28.512Z,98988.63
2023-08-14T08:59:16.275Z,98967.19
2023-08-14T09:02:02.652Z,98953.75
2023-08-14T09:04:49.217Z,98954.75
2023-08-14T09:07:35.671Z,98969.31
2023-08-14T09:10:22.239Z,98979.06
2023-08-14T09:13:10.375Z,98976.63
2023-08-14T09:15:56.700Z,98981.19
2023-08-14T09:18:44.617Z,98970.03
2023-08-14T09:21:31.396Z,98970.22
2023-08-14T09:24:17.742Z,98966.56
2023-08-14T09:27:04.513Z,98973.41
2023-08-14T09:29:55.105Z,98969.22
2023-08-14T09:32:41.806Z,98968.59
2023-08-14T09:35:28.558Z,98954.06
2023-08-14T09:38:16.523Z,98951.63
2023-08-14T09:41:03.237Z,98961.31
2023-08-14T09:43:49.895Z,98957.72
2023-08-14T09:46:36.458Z,98967.06
2023-08-14T09:49:23.422Z,98964.91
2023-08-14T09:52:11.566Z,98955.47
2023-08-14T09:55:04.144Z,98952.75
2023-08-14T09:57:58.016Z,98949.31
2023-08-14T10:00:44.703Z,98952.00
2023-08-14T10:03:33.666Z,98958.97
2023-08-14T10:06:24.350Z,98951.13
2023-08-14T10:09:11.698Z,98958.53
2023-08-14T10:12:07.364Z,98945.66
2023-08-14T10:15:06.620Z,98941.56
2023-08-14T10:17:57.453Z,98938.00
2023-08-14T10:20:49.236Z,98940.69
2023-08-14T10:23:37.353Z,98937.88
2023-08-14T10:26:26.685Z,98899.50
2023-08-14T10:29:16.104Z,98939.50
2023-08-14T10:32:03.622Z,98939.97
2023-08-14T10:34:51.057Z,98946.53
2023-08-14T10:37:52.875Z,98936.59
2023-08-14T10:40:57.790Z,98948.22
2023-08-14T10:43:53.236Z,98942.88
2023-08-14T10:46:43.723Z,98941.44
2023-08-14T10:49:30.570Z,98931.19
2023-08-14T10:52:20.234Z,98929.22
2023-08-14T10:55:16.571Z,98938.41
2023-08-14T10:58:37.967Z,98940.44
2023-08-14T11:01:37.297Z,98948.78
2023-08-14T11:04:23.709Z,98942.16
2023-08-14T11:07:12.610Z,98906.91
2023-08-14T11:10:03.255Z,98959.72
2023-08-14T11:12:51.689Z,98953.91
2023-08-14T11:15:40.552Z,98955.06
2023-08-14T11:18:28.606Z,98954.72
2023-08-14T11:21:30.108Z,98954.69
2023-08-14T11:24:18.401Z,98939.50
2023-08-14T11:27:05.179Z,98938.91
2023-08-14T11:29:54.780Z,98936.09
2023-08-14T11:32:44.456Z,98929.19
2023-08-14T11:35:31.704Z,98930.28
2023-08-14T11:38:20.900Z,98932.56
2023-08-14T11:41:07.699Z,98933.06
2023-08-14T11:43:54.111Z,98916.53
2023-08-14T11:46:40.758Z,98911.00
2023-08-14T11:49:28.204Z,98945.31
2023-08-14T11:52:14.967Z,98939.94
2023-08-14T11:55:02.365Z,98960.34
2023-08-14T11:57:49.426Z,98962.50
2023-08-14T12:00:35.968Z,98981.53
2023-08-14T12:03:22.503Z,99014.69
2023-08-14T12:06:09.192Z,99020.53
2023-08-14T12:08:55.926Z,99013.66
2023-08-14T12:11:42.646Z,99019.00
2023-08-14T12:14:45.256Z,99003.50
2023-08-14T12:17:32.233Z,99008.97
2023-08-14T12:20:21.342Z,99000.63
2023-08-14T12:23:15.410Z,99004.28
2023-08-14T12:26:08.255Z,98986.56
2023-08-14T12:28:54.689Z,98994.09
2023-08-14T12:31:41.108Z,98992.44
2023-08-14T12:34:27.891Z,98985.88
2023-08-14T12:37:18.198Z,99001.94
2023-08-14T12:40:10.117Z,98997.47
2023-08-14T12:42:56.449Z,99003.19
2023-08-14T12:45:43.290Z,99015.84
2023-08-14T12:48:30.003Z,99013.22
2023-08-14T12:51:16.292Z,99017.63
2023-08-14T12:54:02.799Z,99020.84
2023-08-14T12:56:49.346Z,99000.25
2023-08-14T12:59:35.650Z,98997.75
2023-08-14T13:02:25.534Z,98982.91
2023-08-14T13:05:12.464Z,98996.97
2023-08-14T13:07:59.558Z,98984.19
2023-08-14T13:10:46.011Z,98977.28
2023-08-14T13:13:32.693Z,98966.69
2023-08-14T13:16:19.533Z,98963.47
2023-08-14T13:19:06.220Z,98958.38
2023-08-14T13:21:52.617Z,98960.81
2023-08-14T13:24:39.030Z,98962.44
2023-08-14T13:27:26.859Z,98961.91
2023-08-14T13:30:20.206Z,98948.19
2023-08-14T13:33:07.077Z,98942.66
2023-08-14T13:35:53.556Z,98951.91
2023-08-14T13:38:40.025Z,98951.28
2023-08-14T13:41:26.511Z,98949.06
2023-08-14T13:44:12.975Z,98950.44
2023-08-14T13:47:00.772Z,98954.19
2023-08-14T13:49:47.811Z,98946.31
2023-08-14T13:52:34.323Z,98959.25
2023-08-14T13:55:20.832Z,98950.75
2023-08-14T13:58:07.315Z,98944.31
2023-08-14T14:00:53.913Z,98933.00
2023-08-14T14:03:42.035Z,98934.47
2023-08-14T14:06:28.908Z,98914.91
2023-08-14T14:09:15.207Z,98925.53
2023-08-14T14:12:01.656Z,98918.47
2023-08-14T14:14:48.098Z,98936.63
2023-08-14T14:17:34.446Z,98938.16
2023-08-14T14:20:21.117Z,98932.56
2023-08-14T14:23:07.539Z,98933.94
2023-08-14T14:25:54.160Z,98930.53
2023-08-14T14:28:40.602Z,98920.25
2023-08-14T14:31:27.336Z,98925.47
2023-08-14T14:34:13.769Z,98929.53
2023-08-14T14:37:00.261Z,98914.63
2023-08-14T14:39:46.625Z,98904.44
2023-08-14T14:42:33.119Z,98916.88
2023-08-14T14:45:32.873Z,98908.59
2023-08-14T14:48:20.960Z,98904.69
2023-08-14T14:51:07.962Z,98895.97
2023-08-14T14:53:54.467Z,98883.16
2023-08-14T14:56:40.892Z,98881.44
2023-08-14T14:59:27.270Z,98888.38
2023-08-14T15:02:27.653Z,98865.41
2023-08-14T15:05:27.855Z,98869.75
2023-08-14T15:08:15.814Z,98864.19
2023-08-14T15:11:02.314Z,98847.81
2023-08-14T15:13:48.781Z,98863.44
2023-08-14T15:16:35.143Z,98856.31
2023-08-14T15:19:21.740Z,98860.53
2023-08-14T15:22:08.159Z,98864.59
2023-08-14T15:25:00.581Z,98869.19
2023-08-14T15:27:47.004Z,98852.84
2023-08-14T15:30:35.584Z,98848.78
2023-08-14T15:33:22.957Z,98851.81
2023-08-14T15:36:09.439Z,98851.47
2023-08-14T15:38:56.182Z,98849.38
2023-08-14T15:41:43.026Z,98844.56
2023-08-14T15:44:29.447Z,98837.38
2023-08-14T15:47:15.937Z,98842.00
2023-08-14T15:50:02.365Z,98845.41
2023-08-14T15:52:49.258Z,98848.38
2023-08-14T15:55:35.686Z,98840.41
2023-08-14T15:58:22.091Z,98824.91
2023-08-14T16:01:08.746Z,98827.28
2023-08-14T16:03:55.671Z,98832.59
2023-08-14T16:06:42.615Z,98831.53
2023-08-14T16:09:28.912Z,98836.44
2023-08-14T16:12:15.697Z,98838.81
2023-08-14T16:15:02.214Z,98839.66
2023-08-14T16:17:48.635Z,98848.69
2023-08-14T16:20:35.008Z,98836.69
2023-08-14T16:23:21.556Z,98835.22
2023-08-14T16:26:08.087Z,98823.41
2023-08-14T16:28:54.821Z,98814.63
2023-08-14T16:31:41.917Z,98833.09
2023-08-14T16:34:28.327Z,98827.16
2023-08-14T16:37:14.715Z,98843.53
2023-08-14T16:40:01.606Z,98844.78
2023-08-14T16:42:48.049Z,98839.06
2023-08-14T16:45:34.540Z,98839.91
2023-08-14T16:48:21.207Z,98817.41
2023-08-14T16:51:08.065Z,98843.72
2023-08-14T16:53:55.297Z,98845.63
2023-08-14T16:56:41.777Z,98833.06
2023-08-14T16:59:28.461Z,98823.34
2023-08-14T17:02:15.525Z,98844.91
2023-08-14T17:05:02.324Z,98829.72
2023-08-14T17:07:48.954Z,98839.16
2023-08-14T17:10:36.478Z,98842.63
2023-08-14T17:13:23.169Z,98835.53
2023-08-14T17:16:10.567Z,98848.22
2023-08-14T17:18:57.292Z,98845.44
2023-08-14T17:21:46.680Z,98839.81
2023-08-14T17:24:34.390Z,98834.72
2023-08-14T17:27:22.528Z,98843.44
2023-08-14T17:30:09.483Z,98834.19
2023-08-14T17:32:56.372Z,98836.31
2023-08-14T17:35:46.439Z,98838.13
2023-08-14T17:38:35.772Z,98841.75
2023-08-14T17:41:22.426Z,98838.44
2023-08-14T17:44:09.249Z,98837.47
2023-08-14T17:46:55.795Z,98827.28
2023-08-14T17:49:42.203Z,98835.13
2023-08-14T17:52:28.735Z,98835.94
2023-08-14T17:55:15.883Z,98842.88
2023-08-14T17:58:02.432Z,98834.44
2023-08-14T18:00:50.931Z,98840.53
2023-08-14T18:03:37.444Z,98840.91
2023-08-14T18:06:24.997Z,98836.22
2023-08-14T18:09:11.883Z,98836.22
2023-08-14T18:11:58.452Z,98846.66
2023-08-14T18:14:45.019Z,98847.44
2023-08-14T18:17:31.725Z,98849.53
2023-08-14T18:20:18.435Z,98852.19
2023-08-14T18:23:04.820Z,98857.56
2023-08-14T18:25:55.861Z,98848.56
2023-08-14T18:28:42.584Z,98843.75
2023-08-14T18:31:29.071Z,98855.91
2023-08-14T18:34:15.787Z,98854.41
2023-08-14T18:37:02.414Z,98858.47
2023-08-14T18:39:48.781Z,98861.88
2023-08-14T18:42:35.467Z,98851.44
2023-08-14T18:45:22.098Z,98854.09
2023-08-14T18:48:09.303Z,98864.72
2023-08-14T18:50:56.227Z,98877.97
2023-08-14T18:53:43.519Z,98880.38
2023-08-14T18:56:29.954Z,98877.13
2023-08-14T18:59:23.717Z,98884.28
2023-08-14T19:02:10.231Z,98884.97
2023-08-14T19:04:57.092Z,98895.59
2023-08-14T19:07:43.602Z,98899.75
2023-08-14T19:10:30.289Z,98892.31
2023-08-14T19:13:16.537Z,98892.84
2023-08-14T19:16:04.903Z,98897.88
2023-08-14T19:18:54.669Z,98900.94
2023-08-14T19:21:41.041Z,98906.88
2023-08-14T19:24:27.809Z,98889.22
2023-08-14T19:27:14.304Z,98877.78
2023-08-14T19:30:00.761Z,98899.44
2023-08-14T19:32:47.491Z,98896.09
2023-08-14T19:35:34.862Z,98905.66
2023-08-14T19:38:21.557Z,98905.66
2023-08-14T19:41:08.281Z,98907.50
2023-08-14T19:43:54.954Z,98898.41
2023-08-14T19:46:41.938Z,98908.00
2023-08-14T19:49:28.703Z,98886.97
2023-08-14T19:52:15.222Z,98896.84
2023-08-14T19:55:02.362Z,98900.56
2023-08-14T19:57:48.920Z,98905.28
2023-08-14T20:00:36.066Z,98905.94
2023-08-14T20:03:22.488Z,98901.94
2023-08-14T20:06:09.180Z,98897.00
2023-08-14T20:08:55.739Z,98905.59
2023-08-14T20:11:42.732Z,98923.19
2023-08-14T20:14:29.056Z,98914.66
2023-08-14T20:17:15.633Z,98905.97
2023-08-14T20:20:02.701Z,98906.88
2023-08-14T20:22:49.376Z,98909.72
2023-08-14T20:25:36.661Z,98899.66
2023-08-14T20:28:23.657Z,98913.44
2023-08-14T20:31:25.876Z,98904.22
2023-08-14T20:34:12.459Z,98913.00
2023-08-14T20:36:59.309Z,98910.59
2023-08-14T20:39:47.295Z,98917.78
2023-08-14T20:42:34.110Z,98928.19
2023-08-14T20:45:23.157Z,98922.31
2023-08-14T20:48:09.775Z,98923.28
2023-08-14T20:50:56.542Z,98881.97
2023-08-14T20:53:43.120Z,98915.31
2023-08-14T20:56:29.710Z,98900.84
2023-08-14T20:59:16.079Z,98925.94
2023-08-14T21:02:02.670Z,98926.22
2023-08-14T21:04:49.593Z,98931.47
2023-08-14T21:07:36.004Z,98925.44
2023-08-14T21:10:22.722Z,98927.16
2023-08-14T21:13:09.678Z,98921.09
2023-08-14T21:15:57.591Z,98922.03
2023-08-14T21:18:45.619Z,98907.38
2023-08-14T21:21:32.178Z,98912.47
2023-08-14T21:24:18.792Z,98908.94
2023-08-14T21:27:05.437Z,98926.88
2023-08-14T21:29:51.786Z,98919.16
2023-08-14T21:32:38.456Z,98915.06
2023-08-14T21:35:24.985Z,98903.81
2023-08-14T21:38:11.703Z,98920.25
2023-08-14T21:41:02.915Z,98927.41
2023-08-14T21:43:49.344Z,98928.63
2023-08-14T21:46:36.107Z,98938.50
2023-08-14T21:49:22.619Z,98923.72
2023-08-14T21:52:09.087Z,98938.38
2023-08-14T21:54:55.700Z,98938.78
2023-08-14T21:57:42.149Z,98942.22
2023-08-14T22:00:28.587Z,98883.28
2023-08-14T22:03:15.115Z,98929.56
2023-08-14T22:06:05.555Z,98934.69
2023-08-14T22:08:52.420Z,98946.78
2023-08-14T22:11:38.815Z,98945.97
2023-08-14T22:14:25.188Z,98935.38
2023-08-14T22:17:11.695Z,98952.44
2023-08-14T22:19:58.420Z,98938.38
2023-08-14T22:22:44.741Z,98939.50
2023-08-14T22:25:31.300Z,98925.22
2023-08-14T22:28:17.598Z,98933.00
2023-08-14T22:31:04.013Z,98942.16
2023-08-14T22:33:50.430Z,98914.75
2023-08-14T22:36:36.861Z,98923.03
2023-08-14T22:39:23.407Z,98935.41
2023-08-14T22:42:09.782Z,98942.38
2023-08-14T22:44:56.331Z,98931.34
2023-08-14T22:47:42.745Z,98924.88
2023-08-14T22:50:31.267Z,98932.66
2023-08-14T22:53:18.945Z,98943.28
2023-08-14T22:56:06.153Z,98951.91
2023-08-14T22:58:52.739Z,98965.75
2023-08-14T23:01:40.078Z,98950.19
2023-08-14T23:04:26.746Z,98963.00
2023-08-14T23:07:13.402Z,98955.25
2023-08-14T23:09:59.837Z,98953.56
2023-08-14T23:12:46.858Z,98951.03
2023-08-14T23:15:33.467Z,98931.06
2023-08-14T23:18:19.756Z,98942.19
2023-08-14T23:21:06.273Z,98954.28
2023-08-14T23:23:52.935Z,98950.00
2023-08-14T23:26:39.164Z,98943.16
2023-08-14T23:29:25.721Z,98940.75
2023-08-14T23:32:12.049Z,98920.50
2023-08-14T23:34:58.432Z,98933.44
2023-08-14T23:37:44.785Z,98931.84
2023-08-14T23:40:31.150Z,98940.69
2023-08-14T23:43:17.789Z,98937.44
2023-08-14T23:46:05.213Z,98941.84
2023-08-14T23:48:51.734Z,98923.91
2023-08-14T23:51:38.019Z,98920.38
2023-08-14T23:54:24.639Z,98929.69
2023-08-14T23:57:11.249Z,98926.28
2023-08-14T23:59:57.724Z,98922.84
